CheckWX is a tool to help pilots better visualize weather data.  It is not intended as a substitute for an official pre-flight weather briefing.

14:26:30 UTC

LQMO TAF
Mostar International Airport
Mostar, Bosnia and Herzegovina
TAF LQMO 071100Z 0712/0812 30005KT 9999 SCT050 TX12/0713Z TN01/0806Z PROB40 TEMPO 0804/0808 2000 BR

Dec-7@
12:00 UTC

Dec-7 @ 12:00 UTC

Dec-8@
12:00 UTC

Dec-8 @ 12:00 UTC

TAF LQMO 071100Z 0712/0812 30005KT 9999 SCT050 TX12/0713Z TN01/0806Z
Wind
  • 300° at 5 KTS
Cloud Levels
  • Scattered at 5,000' AGL

Dec-8@
04:00 UTC

Dec-8 @ 04:00 UTC

Dec-8@
08:00 UTC

Dec-8 @ 08:00 UTC

PROB40 TEMPO 0804/0808 2000 BR

Temporary - 40% Likelihood

Temporary - 40% Likelihood during this time.

Conditions
Mist